sensor_id;sensor_type;location;lat;lon;timestamp;temperature;humidity
23160;DHT22;11748;50.844;4.396;2022-08-25T00:01:43;25.40;99.90
23160;DHT22;11748;50.844;4.396;2022-08-25T00:04:12;25.40;99.90
23160;DHT22;11748;50.844;4.396;2022-08-25T00:06:40;25.30;99.90
23160;DHT22;11748;50.844;4.396;2022-08-25T00:09:07;25.30;99.90
23160;DHT22;11748;50.844;4.396;2022-08-25T00:11:34;25.30;99.90
23160;DHT22;11748;50.844;4.396;2022-08-25T00:14:03;25.30;99.90
23160;DHT22;11748;50.844;4.396;2022-08-25T00:16:32;25.30;99.90
23160;DHT22;11748;50.844;4.396;2022-08-25T00:19:01;25.20;99.90
23160;DHT22;11748;50.844;4.396;2022-08-25T00:21:28;25.20;99.90
23160;DHT22;11748;50.844;4.396;2022-08-25T00:23:54;25.20;99.90
23160;DHT22;11748;50.844;4.396;2022-08-25T00:26:20;25.20;99.90
23160;DHT22;11748;50.844;4.396;2022-08-25T00:28:46;25.10;99.90
23160;DHT22;11748;50.844;4.396;2022-08-25T00:31:14;25.10;99.90
23160;DHT22;11748;50.844;4.396;2022-08-25T00:33:43;25.00;99.90
23160;DHT22;11748;50.844;4.396;2022-08-25T00:36:10;25.00;99.90
23160;DHT22;11748;50.844;4.396;2022-08-25T00:38:43;25.00;99.90
23160;DHT22;11748;50.844;4.396;2022-08-25T00:41:10;25.00;99.90
23160;DHT22;11748;50.844;4.396;2022-08-25T00:46:08;24.90;99.90
23160;DHT22;11748;50.844;4.396;2022-08-25T00:48:37;24.90;99.90
23160;DHT22;11748;50.844;4.396;2022-08-25T00:51:06;24.80;99.90
23160;DHT22;11748;50.844;4.396;2022-08-25T00:53:33;24.80;99.90
23160;DHT22;11748;50.844;4.396;2022-08-25T00:55:58;24.80;99.90
23160;DHT22;11748;50.844;4.396;2022-08-25T00:58:27;24.80;99.90
23160;DHT22;11748;50.844;4.396;2022-08-25T01:00:56;24.80;99.90
23160;DHT22;11748;50.844;4.396;2022-08-25T01:03:26;24.80;99.90
23160;DHT22;11748;50.844;4.396;2022-08-25T01:05:53;24.80;99.90
23160;DHT22;11748;50.844;4.396;2022-08-25T01:08:22;24.70;99.90
23160;DHT22;11748;50.844;4.396;2022-08-25T01:10:51;24.70;99.90
23160;DHT22;11748;50.844;4.396;2022-08-25T01:13:40;24.70;99.90
23160;DHT22;11748;50.844;4.396;2022-08-25T01:16:07;24.70;99.90
23160;DHT22;11748;50.844;4.396;2022-08-25T01:18:50;24.70;99.90
23160;DHT22;11748;50.844;4.396;2022-08-25T01:21:19;24.70;99.90
23160;DHT22;11748;50.844;4.396;2022-08-25T01:23:46;24.70;99.90
23160;DHT22;11748;50.844;4.396;2022-08-25T01:26:24;24.70;99.90
23160;DHT22;11748;50.844;4.396;2022-08-25T01:28:51;24.60;99.90
23160;DHT22;11748;50.844;4.396;2022-08-25T01:31:37;24.60;99.90
23160;DHT22;11748;50.844;4.396;2022-08-25T01:34:05;24.60;99.90
23160;DHT22;11748;50.844;4.396;2022-08-25T01:36:31;24.60;99.90
23160;DHT22;11748;50.844;4.396;2022-08-25T01:38:58;24.60;99.90
23160;DHT22;11748;50.844;4.396;2022-08-25T01:44:06;24.60;99.90
23160;DHT22;11748;50.844;4.396;2022-08-25T01:46:33;24.60;99.90
23160;DHT22;11748;50.844;4.396;2022-08-25T01:49:02;24.50;99.90
23160;DHT22;11748;50.844;4.396;2022-08-25T01:51:33;24.50;99.90
23160;DHT22;11748;50.844;4.396;2022-08-25T01:54:02;24.50;99.90
23160;DHT22;11748;50.844;4.396;2022-08-25T01:56:27;24.50;99.90
23160;DHT22;11748;50.844;4.396;2022-08-25T01:58:53;24.50;99.90
23160;DHT22;11748;50.844;4.396;2022-08-25T02:01:22;24.50;99.90
23160;DHT22;11748;50.844;4.396;2022-08-25T02:03:50;24.50;99.90
23160;DHT22;11748;50.844;4.396;2022-08-25T02:06:30;24.40;99.90
23160;DHT22;11748;50.844;4.396;2022-08-25T02:09:00;24.50;99.90
23160;DHT22;11748;50.844;4.396;2022-08-25T02:11:26;24.40;99.90
23160;DHT22;11748;50.844;4.396;2022-08-25T02:13:53;24.40;99.90
23160;DHT22;11748;50.844;4.396;2022-08-25T02:16:22;24.40;99.90
23160;DHT22;11748;50.844;4.396;2022-08-25T02:18:50;24.40;99.90
23160;DHT22;11748;50.844;4.396;2022-08-25T02:21:17;24.30;99.90
23160;DHT22;11748;50.844;4.396;2022-08-25T02:23:43;24.30;99.90
23160;DHT22;11748;50.844;4.396;2022-08-25T02:26:09;24.30;99.90
23160;DHT22;11748;50.844;4.396;2022-08-25T02:28:35;24.30;99.90
23160;DHT22;11748;50.844;4.396;2022-08-25T02:31:03;24.30;99.90
23160;DHT22;11748;50.844;4.396;2022-08-25T02:33:29;24.20;99.90
23160;DHT22;11748;50.844;4.396;2022-08-25T02:36:01;24.20;99.90
23160;DHT22;11748;50.844;4.396;2022-08-25T02:38:28;24.20;99.90
23160;DHT22;11748;50.844;4.396;2022-08-25T02:40:57;24.20;99.90
23160;DHT22;11748;50.844;4.396;2022-08-25T02:43:24;24.10;99.90
23160;DHT22;11748;50.844;4.396;2022-08-25T02:45:51;24.10;99.90
23160;DHT22;11748;50.844;4.396;2022-08-25T02:48:19;24.10;99.90
23160;DHT22;11748;50.844;4.396;2022-08-25T02:50:49;24.10;99.90
23160;DHT22;11748;50.844;4.396;2022-08-25T02:53:21;24.10;99.90
23160;DHT22;11748;50.844;4.396;2022-08-25T02:55:47;24.10;99.90
23160;DHT22;11748;50.844;4.396;2022-08-25T02:58:14;24.10;99.90
23160;DHT22;11748;50.844;4.396;2022-08-25T03:00:40;24.10;99.90
23160;DHT22;11748;50.844;4.396;2022-08-25T03:03:06;24.00;99.90
23160;DHT22;11748;50.844;4.396;2022-08-25T03:05:32;24.00;99.90
23160;DHT22;11748;50.844;4.396;2022-08-25T03:07:58;24.00;99.90
23160;DHT22;11748;50.844;4.396;2022-08-25T03:10:24;24.00;99.90
23160;DHT22;11748;50.844;4.396;2022-08-25T03:12:50;24.00;99.90
23160;DHT22;11748;50.844;4.396;2022-08-25T03:15:16;24.00;99.90
23160;DHT22;11748;50.844;4.396;2022-08-25T03:17:45;24.00;99.90
23160;DHT22;11748;50.844;4.396;2022-08-25T03:20:11;24.00;99.90
23160;DHT22;11748;50.844;4.396;2022-08-25T03:22:37;24.00;99.90
23160;DHT22;11748;50.844;4.396;2022-08-25T03:25:04;23.90;99.90
23160;DHT22;11748;50.844;4.396;2022-08-25T03:27:49;23.90;99.90
23160;DHT22;11748;50.844;4.396;2022-08-25T03:30:16;23.90;99.90
23160;DHT22;11748;50.844;4.396;2022-08-25T03:32:42;23.80;99.90
23160;DHT22;11748;50.844;4.396;2022-08-25T03:35:08;23.80;99.90
23160;DHT22;11748;50.844;4.396;2022-08-25T03:37:36;23.80;99.90
23160;DHT22;11748;50.844;4.396;2022-08-25T03:40:04;23.70;99.90
23160;DHT22;11748;50.844;4.396;2022-08-25T03:42:30;23.70;99.90
23160;DHT22;11748;50.844;4.396;2022-08-25T03:44:56;23.70;99.90
23160;DHT22;11748;50.844;4.396;2022-08-25T03:47:22;23.70;99.90
23160;DHT22;11748;50.844;4.396;2022-08-25T03:49:50;23.70;99.90
23160;DHT22;11748;50.844;4.396;2022-08-25T03:52:16;23.70;99.90
23160;DHT22;11748;50.844;4.396;2022-08-25T03:54:43;23.70;99.90
23160;DHT22;11748;50.844;4.396;2022-08-25T03:57:09;23.70;99.90
23160;DHT22;11748;50.844;4.396;2022-08-25T03:59:35;23.80;99.90
23160;DHT22;11748;50.844;4.396;2022-08-25T04:02:05;23.70;99.70
23160;DHT22;11748;50.844;4.396;2022-08-25T04:04:31;23.70;99.60
23160;DHT22;11748;50.844;4.396;2022-08-25T04:06:57;23.70;99.60
23160;DHT22;11748;50.844;4.396;2022-08-25T04:09:23;23.70;99.40
23160;DHT22;11748;50.844;4.396;2022-08-25T04:11:49;23.70;99.10
23160;DHT22;11748;50.844;4.396;2022-08-25T04:14:15;23.70;99.00
23160;DHT22;11748;50.844;4.396;2022-08-25T04:16:42;23.70;98.90
23160;DHT22;11748;50.844;4.396;2022-08-25T04:19:09;23.70;98.90
23160;DHT22;11748;50.844;4.396;2022-08-25T04:21:37;23.70;99.10
23160;DHT22;11748;50.844;4.396;2022-08-25T04:24:05;23.70;99.20
23160;DHT22;11748;50.844;4.396;2022-08-25T04:26:35;23.70;99.30
23160;DHT22;11748;50.844;4.396;2022-08-25T04:29:03;23.60;99.50
23160;DHT22;11748;50.844;4.396;2022-08-25T04:31:31;23.60;99.60
23160;DHT22;11748;50.844;4.396;2022-08-25T04:33:57;23.60;99.70
23160;DHT22;11748;50.844;4.396;2022-08-25T04:36:23;23.60;99.80
23160;DHT22;11748;50.844;4.396;2022-08-25T04:38:50;23.60;99.90
23160;DHT22;11748;50.844;4.396;2022-08-25T04:41:19;23.60;99.80
23160;DHT22;11748;50.844;4.396;2022-08-25T04:43:45;23.60;99.50
23160;DHT22;11748;50.844;4.396;2022-08-25T04:46:23;23.30;99.40
23160;DHT22;11748;50.844;4.396;2022-08-25T04:48:50;23.40;99.40
23160;DHT22;11748;50.844;4.396;2022-08-25T04:51:22;23.40;99.20
23160;DHT22;11748;50.844;4.396;2022-08-25T04:53:49;23.50;98.80
23160;DHT22;11748;50.844;4.396;2022-08-25T04:56:17;23.50;98.50
23160;DHT22;11748;50.844;4.396;2022-08-25T04:58:43;23.50;98.40
23160;DHT22;11748;50.844;4.396;2022-08-25T05:01:13;23.50;98.30
23160;DHT22;11748;50.844;4.396;2022-08-25T05:03:45;23.50;98.00
23160;DHT22;11748;50.844;4.396;2022-08-25T05:06:12;23.60;97.80
23160;DHT22;11748;50.844;4.396;2022-08-25T05:08:39;23.60;97.70
23160;DHT22;11748;50.844;4.396;2022-08-25T05:11:06;23.60;97.50
23160;DHT22;11748;50.844;4.396;2022-08-25T05:13:33;23.70;97.50
23160;DHT22;11748;50.844;4.396;2022-08-25T05:16:00;23.70;97.40
23160;DHT22;11748;50.844;4.396;2022-08-25T05:18:28;23.70;97.00
23160;DHT22;11748;50.844;4.396;2022-08-25T05:20:55;23.80;96.80
23160;DHT22;11748;50.844;4.396;2022-08-25T05:23:23;23.70;96.50
23160;DHT22;11748;50.844;4.396;2022-08-25T05:25:50;23.70;96.50
23160;DHT22;11748;50.844;4.396;2022-08-25T05:28:18;23.80;96.30
23160;DHT22;11748;50.844;4.396;2022-08-25T05:30:45;23.90;95.90
23160;DHT22;11748;50.844;4.396;2022-08-25T05:33:16;23.90;95.70
23160;DHT22;11748;50.844;4.396;2022-08-25T05:35:43;23.90;95.90
23160;DHT22;11748;50.844;4.396;2022-08-25T05:38:09;23.90;95.70
23160;DHT22;11748;50.844;4.396;2022-08-25T05:40:36;24.10;95.40
23160;DHT22;11748;50.844;4.396;2022-08-25T05:43:02;24.20;95.20
23160;DHT22;11748;50.844;4.396;2022-08-25T05:45:27;24.30;95.00
23160;DHT22;11748;50.844;4.396;2022-08-25T05:47:53;24.30;94.80
23160;DHT22;11748;50.844;4.396;2022-08-25T05:50:20;24.40;94.70
23160;DHT22;11748;50.844;4.396;2022-08-25T05:52:45;24.60;94.40
23160;DHT22;11748;50.844;4.396;2022-08-25T05:55:11;24.60;94.40
23160;DHT22;11748;50.844;4.396;2022-08-25T05:57:37;24.70;94.20
23160;DHT22;11748;50.844;4.396;2022-08-25T06:00:05;24.80;94.20
23160;DHT22;11748;50.844;4.396;2022-08-25T06:02:31;24.90;94.00
23160;DHT22;11748;50.844;4.396;2022-08-25T06:05:16;25.00;93.60
23160;DHT22;11748;50.844;4.396;2022-08-25T06:07:43;25.10;93.50
23160;DHT22;11748;50.844;4.396;2022-08-25T06:10:09;25.20;93.60
23160;DHT22;11748;50.844;4.396;2022-08-25T06:12:40;25.30;93.60
23160;DHT22;11748;50.844;4.396;2022-08-25T06:15:10;25.40;93.60
23160;DHT22;11748;50.844;4.396;2022-08-25T06:17:36;25.50;93.50
23160;DHT22;11748;50.844;4.396;2022-08-25T06:20:07;25.50;93.30
23160;DHT22;11748;50.844;4.396;2022-08-25T06:22:33;25.60;93.10
23160;DHT22;11748;50.844;4.396;2022-08-25T06:25:00;25.70;92.60
23160;DHT22;11748;50.844;4.396;2022-08-25T06:27:26;25.80;92.40
23160;DHT22;11748;50.844;4.396;2022-08-25T06:29:51;26.00;92.30
23160;DHT22;11748;50.844;4.396;2022-08-25T06:32:17;26.20;92.20
23160;DHT22;11748;50.844;4.396;2022-08-25T06:34:43;26.50;91.90
23160;DHT22;11748;50.844;4.396;2022-08-25T06:37:08;26.50;91.50
23160;DHT22;11748;50.844;4.396;2022-08-25T06:39:34;26.40;91.50
23160;DHT22;11748;50.844;4.396;2022-08-25T06:42:00;26.40;91.60
23160;DHT22;11748;50.844;4.396;2022-08-25T06:44:27;26.40;91.70
23160;DHT22;11748;50.844;4.396;2022-08-25T06:46:53;26.30;91.70
23160;DHT22;11748;50.844;4.396;2022-08-25T06:49:19;26.40;91.50
23160;DHT22;11748;50.844;4.396;2022-08-25T06:51:46;26.40;91.60
23160;DHT22;11748;50.844;4.396;2022-08-25T06:54:12;26.50;91.40
23160;DHT22;11748;50.844;4.396;2022-08-25T06:56:41;26.50;91.30
23160;DHT22;11748;50.844;4.396;2022-08-25T06:59:08;26.60;91.20
23160;DHT22;11748;50.844;4.396;2022-08-25T07:01:34;26.60;91.60
23160;DHT22;11748;50.844;4.396;2022-08-25T07:04:02;26.60;91.30
23160;DHT22;11748;50.844;4.396;2022-08-25T07:06:31;26.70;91.60
23160;DHT22;11748;50.844;4.396;2022-08-25T07:08:58;26.80;91.10
23160;DHT22;11748;50.844;4.396;2022-08-25T07:11:24;26.80;91.00
23160;DHT22;11748;50.844;4.396;2022-08-25T07:13:50;27.00;90.80
23160;DHT22;11748;50.844;4.396;2022-08-25T07:16:18;26.90;90.50
23160;DHT22;11748;50.844;4.396;2022-08-25T07:18:45;26.90;90.20
23160;DHT22;11748;50.844;4.396;2022-08-25T07:21:13;27.00;90.30
23160;DHT22;11748;50.844;4.396;2022-08-25T07:23:40;27.10;90.30
23160;DHT22;11748;50.844;4.396;2022-08-25T07:26:11;27.10;90.00
23160;DHT22;11748;50.844;4.396;2022-08-25T07:28:37;27.10;90.00
23160;DHT22;11748;50.844;4.396;2022-08-25T07:31:04;27.10;90.00
23160;DHT22;11748;50.844;4.396;2022-08-25T07:33:32;27.20;89.30
23160;DHT22;11748;50.844;4.396;2022-08-25T07:35:57;27.10;89.30
23160;DHT22;11748;50.844;4.396;2022-08-25T07:38:24;27.10;90.10
23160;DHT22;11748;50.844;4.396;2022-08-25T07:40:50;27.10;89.90
23160;DHT22;11748;50.844;4.396;2022-08-25T07:43:20;27.10;89.80
23160;DHT22;11748;50.844;4.396;2022-08-25T07:45:47;27.20;90.10
23160;DHT22;11748;50.844;4.396;2022-08-25T07:48:14;27.30;90.00
23160;DHT22;11748;50.844;4.396;2022-08-25T07:50:43;27.30;89.90
23160;DHT22;11748;50.844;4.396;2022-08-25T07:53:11;27.40;90.00
23160;DHT22;11748;50.844;4.396;2022-08-25T07:55:37;27.40;90.00
23160;DHT22;11748;50.844;4.396;2022-08-25T07:58:08;27.50;90.00
23160;DHT22;11748;50.844;4.396;2022-08-25T08:00:37;27.50;89.80
23160;DHT22;11748;50.844;4.396;2022-08-25T08:03:05;27.50;89.80
23160;DHT22;11748;50.844;4.396;2022-08-25T08:05:31;27.40;89.60
23160;DHT22;11748;50.844;4.396;2022-08-25T08:07:57;27.40;89.50
23160;DHT22;11748;50.844;4.396;2022-08-25T08:10:24;27.50;90.00
23160;DHT22;11748;50.844;4.396;2022-08-25T08:12:50;27.50;89.70
23160;DHT22;11748;50.844;4.396;2022-08-25T08:15:16;27.50;90.10
23160;DHT22;11748;50.844;4.396;2022-08-25T08:17:42;27.60;89.90
23160;DHT22;11748;50.844;4.396;2022-08-25T08:20:09;27.70;89.70
23160;DHT22;11748;50.844;4.396;2022-08-25T08:22:39;27.70;89.50
23160;DHT22;11748;50.844;4.396;2022-08-25T08:25:09;27.80;89.20
23160;DHT22;11748;50.844;4.396;2022-08-25T08:27:35;27.80;89.20
23160;DHT22;11748;50.844;4.396;2022-08-25T08:30:02;27.90;89.40
23160;DHT22;11748;50.844;4.396;2022-08-25T08:32:29;27.90;89.50
23160;DHT22;11748;50.844;4.396;2022-08-25T08:34:55;27.90;90.00
23160;DHT22;11748;50.844;4.396;2022-08-25T08:37:21;28.00;89.90
23160;DHT22;11748;50.844;4.396;2022-08-25T08:39:47;28.20;90.00
23160;DHT22;11748;50.844;4.396;2022-08-25T08:45:24;28.20;90.00
23160;DHT22;11748;50.844;4.396;2022-08-25T08:56:24;28.40;88.70
23160;DHT22;11748;50.844;4.396;2022-08-25T08:59:03;28.50;88.20
23160;DHT22;11748;50.844;4.396;2022-08-25T09:01:33;28.50;88.00
23160;DHT22;11748;50.844;4.396;2022-08-25T09:04:12;28.70;88.40
23160;DHT22;11748;50.844;4.396;2022-08-25T09:06:45;28.70;87.70
23160;DHT22;11748;50.844;4.396;2022-08-25T09:09:23;28.70;87.50
23160;DHT22;11748;50.844;4.396;2022-08-25T09:14:51;28.90;86.80
23160;DHT22;11748;50.844;4.396;2022-08-25T09:23:33;29.10;86.10
23160;DHT22;11748;50.844;4.396;2022-08-25T09:26:26;29.30;86.20
23160;DHT22;11748;50.844;4.396;2022-08-25T09:29:09;29.40;85.20
23160;DHT22;11748;50.844;4.396;2022-08-25T09:31:40;29.50;85.00
23160;DHT22;11748;50.844;4.396;2022-08-25T09:34:18;29.60;84.90
23160;DHT22;11748;50.844;4.396;2022-08-25T09:36:44;29.60;83.40
23160;DHT22;11748;50.844;4.396;2022-08-25T09:39:13;29.40;82.70
23160;DHT22;11748;50.844;4.396;2022-08-25T09:44:25;29.80;82.40
23160;DHT22;11748;50.844;4.396;2022-08-25T09:46:58;29.90;81.60
23160;DHT22;11748;50.844;4.396;2022-08-25T09:52:36;29.90;81.90
23160;DHT22;11748;50.844;4.396;2022-08-25T10:00:24;30.40;80.20
23160;DHT22;11748;50.844;4.396;2022-08-25T10:08:35;30.10;79.90
23160;DHT22;11748;50.844;4.396;2022-08-25T10:11:05;30.20;80.20
23160;DHT22;11748;50.844;4.396;2022-08-25T10:13:37;30.40;80.10
23160;DHT22;11748;50.844;4.396;2022-08-25T10:18:33;30.80;77.80
23160;DHT22;11748;50.844;4.396;2022-08-25T10:23:27;31.10;78.30
23160;DHT22;11748;50.844;4.396;2022-08-25T10:25:53;31.30;75.80
23160;DHT22;11748;50.844;4.396;2022-08-25T10:31:23;31.60;74.90
23160;DHT22;11748;50.844;4.396;2022-08-25T10:34:16;31.60;74.90
23160;DHT22;11748;50.844;4.396;2022-08-25T10:39:45;31.70;74.10
23160;DHT22;11748;50.844;4.396;2022-08-25T10:43:14;31.70;73.50
23160;DHT22;11748;50.844;4.396;2022-08-25T10:46:02;31.90;71.90
23160;DHT22;11748;50.844;4.396;2022-08-25T11:04:58;32.20;68.50
23160;DHT22;11748;50.844;4.396;2022-08-25T11:07:32;32.40;67.40
23160;DHT22;11748;50.844;4.396;2022-08-25T11:10:05;32.50;68.50
23160;DHT22;11748;50.844;4.396;2022-08-25T11:15:22;32.60;68.10
23160;DHT22;11748;50.844;4.396;2022-08-25T11:18:10;32.70;68.10
23160;DHT22;11748;50.844;4.396;2022-08-25T11:20:54;32.50;67.50
23160;DHT22;11748;50.844;4.396;2022-08-25T11:23:36;32.60;67.70
23160;DHT22;11748;50.844;4.396;2022-08-25T11:26:11;32.50;67.40
23160;DHT22;11748;50.844;4.396;2022-08-25T11:28:56;32.70;68.30
23160;DHT22;11748;50.844;4.396;2022-08-25T11:31:24;32.80;68.10
23160;DHT22;11748;50.844;4.396;2022-08-25T11:33:52;32.60;69.30
23160;DHT22;11748;50.844;4.396;2022-08-25T11:41:40;32.80;67.50
23160;DHT22;11748;50.844;4.396;2022-08-25T11:46:45;32.80;68.00
23160;DHT22;11748;50.844;4.396;2022-08-25T11:55:18;33.10;66.40
23160;DHT22;11748;50.844;4.396;2022-08-25T11:57:47;33.10;67.50
23160;DHT22;11748;50.844;4.396;2022-08-25T12:10:21;33.10;67.50
23160;DHT22;11748;50.844;4.396;2022-08-25T12:34:24;33.50;66.00
23160;DHT22;11748;50.844;4.396;2022-08-25T12:37:04;33.70;65.60
23160;DHT22;11748;50.844;4.396;2022-08-25T12:39:36;33.60;66.10
23160;DHT22;11748;50.844;4.396;2022-08-25T12:47:39;34.10;67.10
23160;DHT22;11748;50.844;4.396;2022-08-25T12:50:39;34.30;64.80
23160;DHT22;11748;50.844;4.396;2022-08-25T12:56:08;34.50;65.50
23160;DHT22;11748;50.844;4.396;2022-08-25T13:10:41;34.80;63.20
23160;DHT22;11748;50.844;4.396;2022-08-25T13:13:36;34.90;62.80
23160;DHT22;11748;50.844;4.396;2022-08-25T13:16:16;34.90;63.00
23160;DHT22;11748;50.844;4.396;2022-08-25T13:18:42;34.90;63.20
23160;DHT22;11748;50.844;4.396;2022-08-25T13:21:17;34.80;62.70
23160;DHT22;11748;50.844;4.396;2022-08-25T13:23:49;34.40;63.40
23160;DHT22;11748;50.844;4.396;2022-08-25T13:26:39;34.20;64.20
23160;DHT22;11748;50.844;4.396;2022-08-25T13:31:36;34.10;65.80
23160;DHT22;11748;50.844;4.396;2022-08-25T13:34:05;34.30;65.20
23160;DHT22;11748;50.844;4.396;2022-08-25T13:36:41;34.40;63.10
23160;DHT22;11748;50.844;4.396;2022-08-25T13:39:26;34.40;63.40
23160;DHT22;11748;50.844;4.396;2022-08-25T13:41:56;34.30;64.80
23160;DHT22;11748;50.844;4.396;2022-08-25T13:44:27;34.40;64.00
23160;DHT22;11748;50.844;4.396;2022-08-25T13:47:16;34.40;63.20
23160;DHT22;11748;50.844;4.396;2022-08-25T13:50:34;34.40;64.40
23160;DHT22;11748;50.844;4.396;2022-08-25T13:53:03;34.30;64.50
23160;DHT22;11748;50.844;4.396;2022-08-25T13:55:40;34.30;62.90
23160;DHT22;11748;50.844;4.396;2022-08-25T13:58:15;34.20;62.60
23160;DHT22;11748;50.844;4.396;2022-08-25T14:00:48;34.00;62.10
23160;DHT22;11748;50.844;4.396;2022-08-25T14:03:32;33.80;63.50
23160;DHT22;11748;50.844;4.396;2022-08-25T14:06:09;33.80;65.50
23160;DHT22;11748;50.844;4.396;2022-08-25T14:08:38;33.80;64.00
23160;DHT22;11748;50.844;4.396;2022-08-25T14:11:14;33.60;64.30
23160;DHT22;11748;50.844;4.396;2022-08-25T14:13:42;33.20;72.50
23160;DHT22;11748;50.844;4.396;2022-08-25T14:16:13;32.60;75.60
23160;DHT22;11748;50.844;4.396;2022-08-25T14:18:46;32.40;76.50
23160;DHT22;11748;50.844;4.396;2022-08-25T14:21:15;32.10;77.50
23160;DHT22;11748;50.844;4.396;2022-08-25T14:23:41;31.90;78.40
23160;DHT22;11748;50.844;4.396;2022-08-25T14:26:07;31.80;79.20
23160;DHT22;11748;50.844;4.396;2022-08-25T14:28:33;31.90;78.60
23160;DHT22;11748;50.844;4.396;2022-08-25T14:31:03;32.10;78.80
23160;DHT22;11748;50.844;4.396;2022-08-25T14:33:35;32.00;79.10
23160;DHT22;11748;50.844;4.396;2022-08-25T14:36:02;32.30;78.90
23160;DHT22;11748;50.844;4.396;2022-08-25T14:38:29;32.30;79.00
23160;DHT22;11748;50.844;4.396;2022-08-25T14:40:55;32.10;78.30
23160;DHT22;11748;50.844;4.396;2022-08-25T14:43:20;31.80;78.00
23160;DHT22;11748;50.844;4.396;2022-08-25T14:45:47;31.80;78.20
23160;DHT22;11748;50.844;4.396;2022-08-25T14:48:19;31.80;78.20
23160;DHT22;11748;50.844;4.396;2022-08-25T14:50:56;31.60;76.40
23160;DHT22;11748;50.844;4.396;2022-08-25T14:53:23;31.60;76.40
23160;DHT22;11748;50.844;4.396;2022-08-25T14:55:49;31.70;76.40
23160;DHT22;11748;50.844;4.396;2022-08-25T14:58:20;31.60;76.30
23160;DHT22;11748;50.844;4.396;2022-08-25T15:00:46;31.50;76.20
23160;DHT22;11748;50.844;4.396;2022-08-25T15:03:17;31.50;76.60
23160;DHT22;11748;50.844;4.396;2022-08-25T15:05:44;31.60;76.60
23160;DHT22;11748;50.844;4.396;2022-08-25T15:08:10;31.60;76.50
23160;DHT22;11748;50.844;4.396;2022-08-25T15:10:54;31.70;76.50
23160;DHT22;11748;50.844;4.396;2022-08-25T15:13:20;31.70;76.20
23160;DHT22;11748;50.844;4.396;2022-08-25T15:15:46;31.80;76.10
23160;DHT22;11748;50.844;4.396;2022-08-25T15:18:13;31.70;78.50
23160;DHT22;11748;50.844;4.396;2022-08-25T15:20:38;31.60;80.10
23160;DHT22;11748;50.844;4.396;2022-08-25T15:23:04;31.60;81.50
23160;DHT22;11748;50.844;4.396;2022-08-25T15:25:30;31.70;80.90
23160;DHT22;11748;50.844;4.396;2022-08-25T15:27:56;31.60;82.50
23160;DHT22;11748;50.844;4.396;2022-08-25T15:30:22;31.40;83.40
23160;DHT22;11748;50.844;4.396;2022-08-25T15:32:47;31.40;84.10
23160;DHT22;11748;50.844;4.396;2022-08-25T15:35:13;31.40;84.60
23160;DHT22;11748;50.844;4.396;2022-08-25T15:37:39;31.40;85.90
23160;DHT22;11748;50.844;4.396;2022-08-25T15:40:05;31.40;86.70
23160;DHT22;11748;50.844;4.396;2022-08-25T15:42:33;31.00;88.00
23160;DHT22;11748;50.844;4.396;2022-08-25T15:44:59;30.90;88.90
23160;DHT22;11748;50.844;4.396;2022-08-25T15:47:24;30.70;89.60
23160;DHT22;11748;50.844;4.396;2022-08-25T15:50:04;30.60;90.10
23160;DHT22;11748;50.844;4.396;2022-08-25T15:52:30;30.50;90.20
23160;DHT22;11748;50.844;4.396;2022-08-25T15:54:55;30.50;90.30
23160;DHT22;11748;50.844;4.396;2022-08-25T15:57:21;30.50;90.60
23160;DHT22;11748;50.844;4.396;2022-08-25T15:59:47;30.50;90.80
23160;DHT22;11748;50.844;4.396;2022-08-25T16:02:12;30.30;90.30
23160;DHT22;11748;50.844;4.396;2022-08-25T16:04:38;30.20;90.60
23160;DHT22;11748;50.844;4.396;2022-08-25T16:07:04;30.20;90.60
23160;DHT22;11748;50.844;4.396;2022-08-25T16:09:30;30.00;90.80
23160;DHT22;11748;50.844;4.396;2022-08-25T16:11:56;30.00;91.50
23160;DHT22;11748;50.844;4.396;2022-08-25T16:14:21;30.00;91.40
23160;DHT22;11748;50.844;4.396;2022-08-25T16:16:48;29.80;91.80
23160;DHT22;11748;50.844;4.396;2022-08-25T16:19:14;29.70;91.80
23160;DHT22;11748;50.844;4.396;2022-08-25T16:21:40;29.70;92.10
23160;DHT22;11748;50.844;4.396;2022-08-25T16:24:06;29.70;92.00
23160;DHT22;11748;50.844;4.396;2022-08-25T16:26:34;29.60;92.70
23160;DHT22;11748;50.844;4.396;2022-08-25T16:29:02;29.50;93.40
23160;DHT22;11748;50.844;4.396;2022-08-25T16:31:29;29.40;93.90
23160;DHT22;11748;50.844;4.396;2022-08-25T16:33:55;29.30;94.20
23160;DHT22;11748;50.844;4.396;2022-08-25T16:36:22;29.30;94.40
23160;DHT22;11748;50.844;4.396;2022-08-25T16:38:50;29.30;94.60
23160;DHT22;11748;50.844;4.396;2022-08-25T16:41:23;29.20;94.90
23160;DHT22;11748;50.844;4.396;2022-08-25T16:43:49;29.30;95.10
23160;DHT22;11748;50.844;4.396;2022-08-25T16:46:18;29.20;95.30
23160;DHT22;11748;50.844;4.396;2022-08-25T16:48:44;29.10;95.70
23160;DHT22;11748;50.844;4.396;2022-08-25T16:51:13;29.00;95.70
23160;DHT22;11748;50.844;4.396;2022-08-25T16:53:39;28.90;95.90
23160;DHT22;11748;50.844;4.396;2022-08-25T16:56:24;28.90;95.80
23160;DHT22;11748;50.844;4.396;2022-08-25T16:58:55;28.70;95.90
23160;DHT22;11748;50.844;4.396;2022-08-25T17:01:22;28.60;96.20
23160;DHT22;11748;50.844;4.396;2022-08-25T17:03:54;28.60;96.90
23160;DHT22;11748;50.844;4.396;2022-08-25T17:06:23;28.40;97.20
23160;DHT22;11748;50.844;4.396;2022-08-25T17:08:49;28.40;97.60
23160;DHT22;11748;50.844;4.396;2022-08-25T17:11:30;28.40;97.60
23160;DHT22;11748;50.844;4.396;2022-08-25T17:14:02;28.00;97.10
23160;DHT22;11748;50.844;4.396;2022-08-25T17:16:31;28.00;97.10
23160;DHT22;11748;50.844;4.396;2022-08-25T17:18:59;27.80;97.00
23160;DHT22;11748;50.844;4.396;2022-08-25T17:21:31;27.80;97.20
23160;DHT22;11748;50.844;4.396;2022-08-25T17:23:57;27.80;97.50
23160;DHT22;11748;50.844;4.396;2022-08-25T17:26:25;27.70;97.60
23160;DHT22;11748;50.844;4.396;2022-08-25T17:28:52;27.60;97.80
23160;DHT22;11748;50.844;4.396;2022-08-25T17:31:18;27.60;97.90
23160;DHT22;11748;50.844;4.396;2022-08-25T17:33:44;27.40;98.10
23160;DHT22;11748;50.844;4.396;2022-08-25T17:36:11;27.40;98.20
23160;DHT22;11748;50.844;4.396;2022-08-25T17:38:39;27.30;98.20
23160;DHT22;11748;50.844;4.396;2022-08-25T17:41:06;27.30;98.30
23160;DHT22;11748;50.844;4.396;2022-08-25T17:43:35;27.10;98.90
23160;DHT22;11748;50.844;4.396;2022-08-25T17:46:03;27.20;99.00
23160;DHT22;11748;50.844;4.396;2022-08-25T17:48:29;27.20;99.20
23160;DHT22;11748;50.844;4.396;2022-08-25T17:50:57;27.10;99.40
23160;DHT22;11748;50.844;4.396;2022-08-25T17:53:23;27.00;99.90
23160;DHT22;11748;50.844;4.396;2022-08-25T17:55:59;27.10;99.30
23160;DHT22;11748;50.844;4.396;2022-08-25T17:58:26;27.10;99.20
23160;DHT22;11748;50.844;4.396;2022-08-25T18:00:52;26.90;99.50
23160;DHT22;11748;50.844;4.396;2022-08-25T18:03:19;26.80;99.70
23160;DHT22;11748;50.844;4.396;2022-08-25T18:05:46;26.80;99.80